CheckWX is a tool to help pilots better visualize weather data.  It is not intended as a substitute for an official pre-flight weather briefing.

14:48:45 UTC

KGCK TAF
Garden City Regional Airport
Garden City, Kansas, USA
KGCK 211414Z 2114/2212 01015G25KT P6SM OVC015 FM212100 03012KT P6SM BKN070 FM220300 03008KT 3SM -SN OVC020

Nov-21@
14:00 UTC

Nov-21 @ 14:00 UTC

Nov-21@
21:00 UTC

Nov-21 @ 21:00 UTC

KGCK 211414Z 2114/2212 01015G25KT P6SM OVC015
Wind
  • 010° at 15 KTS
  • {Gusting to 25 KTS
Cloud Levels
  • Overcast at 1,500' AGL

Nov-21@
21:00 UTC

Nov-21 @ 21:00 UTC

Nov-22@
03:00 UTC

Nov-22 @ 03:00 UTC

FM212100 03012KT P6SM BKN070

From

From Standard forecast or significant change

Wind
  • 030° at 12 KTS
Cloud Levels
  • Broken at 7,000' AGL

Nov-22@
03:00 UTC

Nov-22 @ 03:00 UTC

Nov-22@
12:00 UTC

Nov-22 @ 12:00 UTC

FM220300 03008KT 3SM -SN OVC020

From

From Standard forecast or significant change

Wind
  • 030° at 8 KTS
Conditions
Light Snow
Cloud Levels
  • Overcast at 2,000' AGL